sensor_id;sensor_type;location;lat;lon;timestamp;P1;durP1;ratioP1;P2;durP2;ratioP2
74892;SDS011;63446;56.272;43.922;2022-11-20T00:00:54;5.10;;;1.67;;
74892;SDS011;63446;56.272;43.922;2022-11-20T00:03:20;10.93;;;2.30;;
74892;SDS011;63446;56.272;43.922;2022-11-20T00:05:46;5.83;;;1.10;;
74892;SDS011;63446;56.272;43.922;2022-11-20T00:08:12;4.78;;;1.00;;
74892;SDS011;63446;56.272;43.922;2022-11-20T00:10:40;7.95;;;2.15;;
74892;SDS011;63446;56.272;43.922;2022-11-20T00:13:07;8.83;;;2.03;;
74892;SDS011;63446;56.272;43.922;2022-11-20T00:15:33;7.18;;;1.90;;
74892;SDS011;63446;56.272;43.922;2022-11-20T00:17:59;4.70;;;0.90;;
74892;SDS011;63446;56.272;43.922;2022-11-20T00:20:25;9.00;;;2.13;;
74892;SDS011;63446;56.272;43.922;2022-11-20T00:22:51;8.15;;;1.85;;
74892;SDS011;63446;56.272;43.922;2022-11-20T00:25:18;8.00;;;2.40;;
74892;SDS011;63446;56.272;43.922;2022-11-20T00:27:43;4.47;;;1.00;;
74892;SDS011;63446;56.272;43.922;2022-11-20T00:30:09;6.32;;;1.90;;
74892;SDS011;63446;56.272;43.922;2022-11-20T00:32:35;5.00;;;1.20;;
74892;SDS011;63446;56.272;43.922;2022-11-20T00:35:00;10.20;;;2.10;;
74892;SDS011;63446;56.272;43.922;2022-11-20T00:37:26;8.93;;;2.17;;
74892;SDS011;63446;56.272;43.922;2022-11-20T00:39:52;6.35;;;1.80;;
74892;SDS011;63446;56.272;43.922;2022-11-20T00:42:18;7.47;;;2.27;;
74892;SDS011;63446;56.272;43.922;2022-11-20T00:44:44;4.50;;;1.05;;
74892;SDS011;63446;56.272;43.922;2022-11-20T00:47:10;5.88;;;1.42;;
74892;SDS011;63446;56.272;43.922;2022-11-20T00:49:36;11.77;;;2.00;;
74892;SDS011;63446;56.272;43.922;2022-11-20T00:52:01;8.13;;;2.47;;
74892;SDS011;63446;56.272;43.922;2022-11-20T00:54:27;7.50;;;2.20;;
74892;SDS011;63446;56.272;43.922;2022-11-20T00:56:53;6.68;;;1.85;;
74892;SDS011;63446;56.272;43.922;2022-11-20T00:59:19;6.90;;;1.50;;
74892;SDS011;63446;56.272;43.922;2022-11-20T01:01:45;5.78;;;1.27;;
74892;SDS011;63446;56.272;43.922;2022-11-20T01:04:10;4.33;;;1.20;;
74892;SDS011;63446;56.272;43.922;2022-11-20T01:06:37;5.15;;;1.08;;
74892;SDS011;63446;56.272;43.922;2022-11-20T01:09:05;5.68;;;1.90;;
74892;SDS011;63446;56.272;43.922;2022-11-20T01:11:34;6.83;;;1.90;;
74892;SDS011;63446;56.272;43.922;2022-11-20T01:14:04;4.47;;;1.40;;
74892;SDS011;63446;56.272;43.922;2022-11-20T01:16:34;9.13;;;1.73;;
74892;SDS011;63446;56.272;43.922;2022-11-20T01:19:03;7.80;;;2.03;;
74892;SDS011;63446;56.272;43.922;2022-11-20T01:21:39;8.77;;;2.50;;
74892;SDS011;63446;56.272;43.922;2022-11-20T01:24:09;6.30;;;1.77;;
74892;SDS011;63446;56.272;43.922;2022-11-20T01:26:38;8.85;;;1.63;;
74892;SDS011;63446;56.272;43.922;2022-11-20T01:29:06;9.63;;;2.40;;
74892;SDS011;63446;56.272;43.922;2022-11-20T01:31:35;7.28;;;1.90;;
74892;SDS011;63446;56.272;43.922;2022-11-20T01:34:12;9.00;;;1.73;;
74892;SDS011;63446;56.272;43.922;2022-11-20T01:36:40;6.67;;;2.13;;
74892;SDS011;63446;56.272;43.922;2022-11-20T01:39:10;4.90;;;1.35;;
74892;SDS011;63446;56.272;43.922;2022-11-20T01:41:37;5.30;;;1.75;;
74892;SDS011;63446;56.272;43.922;2022-11-20T01:44:39;7.82;;;2.42;;
74892;SDS011;63446;56.272;43.922;2022-11-20T01:47:15;5.95;;;1.60;;
74892;SDS011;63446;56.272;43.922;2022-11-20T01:49:53;6.47;;;1.23;;
74892;SDS011;63446;56.272;43.922;2022-11-20T01:52:30;8.70;;;1.75;;
74892;SDS011;63446;56.272;43.922;2022-11-20T01:55:05;3.65;;;1.20;;
74892;SDS011;63446;56.272;43.922;2022-11-20T01:57:38;3.42;;;1.05;;
74892;SDS011;63446;56.272;43.922;2022-11-20T02:00:09;7.43;;;1.95;;
74892;SDS011;63446;56.272;43.922;2022-11-20T02:02:39;7.67;;;1.30;;
74892;SDS011;63446;56.272;43.922;2022-11-20T02:08:04;8.75;;;1.60;;
74892;SDS011;63446;56.272;43.922;2022-11-20T02:10:32;7.15;;;2.28;;
74892;SDS011;63446;56.272;43.922;2022-11-20T02:12:59;5.30;;;1.60;;
74892;SDS011;63446;56.272;43.922;2022-11-20T02:15:43;6.37;;;1.93;;
74892;SDS011;63446;56.272;43.922;2022-11-20T02:18:10;5.72;;;1.10;;
74892;SDS011;63446;56.272;43.922;2022-11-20T02:20:40;11.73;;;2.25;;
74892;SDS011;63446;56.272;43.922;2022-11-20T02:25:40;9.38;;;2.80;;
74892;SDS011;63446;56.272;43.922;2022-11-20T02:28:08;8.03;;;2.43;;
74892;SDS011;63446;56.272;43.922;2022-11-20T02:30:34;8.90;;;2.55;;
74892;SDS011;63446;56.272;43.922;2022-11-20T02:33:00;8.98;;;2.65;;
74892;SDS011;63446;56.272;43.922;2022-11-20T02:37:54;10.27;;;3.30;;
74892;SDS011;63446;56.272;43.922;2022-11-20T02:40:21;10.45;;;2.55;;
74892;SDS011;63446;56.272;43.922;2022-11-20T02:42:51;4.63;;;1.08;;
74892;SDS011;63446;56.272;43.922;2022-11-20T02:45:17;8.13;;;2.38;;
74892;SDS011;63446;56.272;43.922;2022-11-20T02:47:43;4.30;;;1.20;;
74892;SDS011;63446;56.272;43.922;2022-11-20T02:50:09;7.60;;;2.35;;
74892;SDS011;63446;56.272;43.922;2022-11-20T02:52:36;7.30;;;2.08;;
74892;SDS011;63446;56.272;43.922;2022-11-20T02:55:02;7.23;;;1.77;;
74892;SDS011;63446;56.272;43.922;2022-11-20T02:57:29;8.75;;;2.42;;
74892;SDS011;63446;56.272;43.922;2022-11-20T02:59:54;11.20;;;2.33;;
74892;SDS011;63446;56.272;43.922;2022-11-20T03:02:21;8.23;;;2.38;;
74892;SDS011;63446;56.272;43.922;2022-11-20T03:04:46;9.03;;;2.60;;
74892;SDS011;63446;56.272;43.922;2022-11-20T03:07:12;10.23;;;2.70;;
74892;SDS011;63446;56.272;43.922;2022-11-20T03:09:38;7.97;;;2.60;;
74892;SDS011;63446;56.272;43.922;2022-11-20T03:12:04;8.27;;;2.83;;
74892;SDS011;63446;56.272;43.922;2022-11-20T03:14:31;8.50;;;2.70;;
74892;SDS011;63446;56.272;43.922;2022-11-20T03:16:56;7.80;;;2.35;;
74892;SDS011;63446;56.272;43.922;2022-11-20T03:19:22;8.63;;;2.47;;
74892;SDS011;63446;56.272;43.922;2022-11-20T03:21:48;7.70;;;2.50;;
74892;SDS011;63446;56.272;43.922;2022-11-20T03:24:14;8.57;;;2.50;;
74892;SDS011;63446;56.272;43.922;2022-11-20T03:26:40;8.00;;;1.83;;
74892;SDS011;63446;56.272;43.922;2022-11-20T03:29:06;9.20;;;2.77;;
74892;SDS011;63446;56.272;43.922;2022-11-20T03:31:37;9.48;;;2.30;;
74892;SDS011;63446;56.272;43.922;2022-11-20T03:34:08;9.13;;;2.65;;
74892;SDS011;63446;56.272;43.922;2022-11-20T03:36:39;9.65;;;2.22;;
74892;SDS011;63446;56.272;43.922;2022-11-20T03:39:06;7.97;;;1.95;;
74892;SDS011;63446;56.272;43.922;2022-11-20T03:41:35;8.20;;;2.40;;
74892;SDS011;63446;56.272;43.922;2022-11-20T03:44:04;7.75;;;2.20;;
74892;SDS011;63446;56.272;43.922;2022-11-20T03:46:32;6.18;;;1.83;;
74892;SDS011;63446;56.272;43.922;2022-11-20T03:48:58;7.57;;;1.85;;
74892;SDS011;63446;56.272;43.922;2022-11-20T03:51:26;10.10;;;2.60;;
74892;SDS011;63446;56.272;43.922;2022-11-20T03:53:54;10.80;;;2.47;;
74892;SDS011;63446;56.272;43.922;2022-11-20T03:56:23;7.55;;;2.45;;
74892;SDS011;63446;56.272;43.922;2022-11-20T03:58:50;10.50;;;2.50;;
74892;SDS011;63446;56.272;43.922;2022-11-20T04:01:18;8.85;;;1.70;;
74892;SDS011;63446;56.272;43.922;2022-11-20T04:03:46;6.13;;;1.65;;
74892;SDS011;63446;56.272;43.922;2022-11-20T04:06:16;8.40;;;1.87;;
74892;SDS011;63446;56.272;43.922;2022-11-20T04:08:44;6.93;;;2.00;;
74892;SDS011;63446;56.272;43.922;2022-11-20T04:11:15;7.57;;;2.80;;
74892;SDS011;63446;56.272;43.922;2022-11-20T04:13:45;10.98;;;2.55;;
74892;SDS011;63446;56.272;43.922;2022-11-20T04:16:13;8.55;;;2.20;;
74892;SDS011;63446;56.272;43.922;2022-11-20T04:18:39;9.93;;;2.43;;
74892;SDS011;63446;56.272;43.922;2022-11-20T04:21:05;10.52;;;2.60;;
74892;SDS011;63446;56.272;43.922;2022-11-20T04:23:32;5.97;;;1.55;;
74892;SDS011;63446;56.272;43.922;2022-11-20T04:26:08;5.05;;;1.33;;
74892;SDS011;63446;56.272;43.922;2022-11-20T04:28:36;8.32;;;1.85;;
74892;SDS011;63446;56.272;43.922;2022-11-20T04:33:33;10.48;;;2.70;;
74892;SDS011;63446;56.272;43.922;2022-11-20T04:36:00;5.68;;;1.50;;
74892;SDS011;63446;56.272;43.922;2022-11-20T04:38:28;10.77;;;2.15;;
74892;SDS011;63446;56.272;43.922;2022-11-20T04:40:56;8.57;;;2.53;;
74892;SDS011;63446;56.272;43.922;2022-11-20T04:43:27;8.10;;;2.77;;
74892;SDS011;63446;56.272;43.922;2022-11-20T04:45:54;10.88;;;2.88;;
74892;SDS011;63446;56.272;43.922;2022-11-20T04:48:20;12.30;;;2.90;;
74892;SDS011;63446;56.272;43.922;2022-11-20T04:50:47;9.52;;;2.35;;
74892;SDS011;63446;56.272;43.922;2022-11-20T04:53:13;11.03;;;2.50;;
74892;SDS011;63446;56.272;43.922;2022-11-20T04:55:40;4.88;;;0.93;;
74892;SDS011;63446;56.272;43.922;2022-11-20T04:58:05;11.15;;;2.90;;
74892;SDS011;63446;56.272;43.922;2022-11-20T05:00:31;6.90;;;2.07;;
74892;SDS011;63446;56.272;43.922;2022-11-20T05:02:57;11.07;;;3.25;;
74892;SDS011;63446;56.272;43.922;2022-11-20T05:05:22;9.23;;;2.50;;
74892;SDS011;63446;56.272;43.922;2022-11-20T05:07:48;9.65;;;2.45;;
74892;SDS011;63446;56.272;43.922;2022-11-20T05:10:14;11.50;;;3.07;;
74892;SDS011;63446;56.272;43.922;2022-11-20T05:12:41;9.55;;;2.60;;
74892;SDS011;63446;56.272;43.922;2022-11-20T05:15:06;9.68;;;3.17;;
74892;SDS011;63446;56.272;43.922;2022-11-20T05:17:33;9.93;;;2.57;;
74892;SDS011;63446;56.272;43.922;2022-11-20T05:20:00;7.00;;;2.00;;
74892;SDS011;63446;56.272;43.922;2022-11-20T05:22:25;7.45;;;1.80;;
74892;SDS011;63446;56.272;43.922;2022-11-20T05:24:52;7.70;;;2.70;;
74892;SDS011;63446;56.272;43.922;2022-11-20T05:27:17;11.33;;;3.00;;
74892;SDS011;63446;56.272;43.922;2022-11-20T05:29:43;11.07;;;3.15;;
74892;SDS011;63446;56.272;43.922;2022-11-20T05:32:10;12.23;;;2.97;;
74892;SDS011;63446;56.272;43.922;2022-11-20T05:34:35;8.50;;;2.37;;
74892;SDS011;63446;56.272;43.922;2022-11-20T05:37:02;9.60;;;2.50;;
74892;SDS011;63446;56.272;43.922;2022-11-20T05:39:27;11.70;;;2.07;;
74892;SDS011;63446;56.272;43.922;2022-11-20T05:41:54;9.73;;;2.70;;
74892;SDS011;63446;56.272;43.922;2022-11-20T05:44:40;12.10;;;3.22;;
74892;SDS011;63446;56.272;43.922;2022-11-20T05:47:05;10.13;;;2.28;;
74892;SDS011;63446;56.272;43.922;2022-11-20T05:49:32;10.63;;;2.75;;
74892;SDS011;63446;56.272;43.922;2022-11-20T05:51:58;9.27;;;2.33;;
74892;SDS011;63446;56.272;43.922;2022-11-20T05:54:23;9.15;;;2.60;;
74892;SDS011;63446;56.272;43.922;2022-11-20T05:56:49;11.77;;;2.83;;
74892;SDS011;63446;56.272;43.922;2022-11-20T05:59:15;13.70;;;3.28;;
74892;SDS011;63446;56.272;43.922;2022-11-20T06:01:41;12.52;;;2.92;;
74892;SDS011;63446;56.272;43.922;2022-11-20T06:04:07;11.23;;;3.40;;
74892;SDS011;63446;56.272;43.922;2022-11-20T06:06:33;15.82;;;3.65;;
74892;SDS011;63446;56.272;43.922;2022-11-20T06:08:59;8.50;;;2.43;;
74892;SDS011;63446;56.272;43.922;2022-11-20T06:11:25;37.47;;;6.35;;
74892;SDS011;63446;56.272;43.922;2022-11-20T06:13:50;10.50;;;2.63;;
74892;SDS011;63446;56.272;43.922;2022-11-20T06:16:17;22.15;;;5.10;;
74892;SDS011;63446;56.272;43.922;2022-11-20T06:18:45;12.57;;;2.92;;
74892;SDS011;63446;56.272;43.922;2022-11-20T06:21:13;12.88;;;3.28;;
74892;SDS011;63446;56.272;43.922;2022-11-20T06:23:41;25.40;;;5.93;;
74892;SDS011;63446;56.272;43.922;2022-11-20T06:26:08;9.18;;;2.85;;
74892;SDS011;63446;56.272;43.922;2022-11-20T06:28:39;9.13;;;2.42;;
74892;SDS011;63446;56.272;43.922;2022-11-20T06:31:05;10.15;;;2.47;;
74892;SDS011;63446;56.272;43.922;2022-11-20T06:33:33;12.25;;;2.85;;
74892;SDS011;63446;56.272;43.922;2022-11-20T06:35:59;11.17;;;2.87;;
74892;SDS011;63446;56.272;43.922;2022-11-20T06:38:26;10.95;;;3.20;;
74892;SDS011;63446;56.272;43.922;2022-11-20T06:40:53;15.13;;;3.65;;
74892;SDS011;63446;56.272;43.922;2022-11-20T06:43:19;21.70;;;4.40;;
74892;SDS011;63446;56.272;43.922;2022-11-20T06:45:51;12.07;;;4.00;;
74892;SDS011;63446;56.272;43.922;2022-11-20T06:48:18;12.38;;;2.97;;
74892;SDS011;63446;56.272;43.922;2022-11-20T06:50:44;10.43;;;2.67;;
74892;SDS011;63446;56.272;43.922;2022-11-20T06:53:10;7.97;;;2.17;;
74892;SDS011;63446;56.272;43.922;2022-11-20T06:55:35;10.40;;;2.43;;
74892;SDS011;63446;56.272;43.922;2022-11-20T06:58:01;8.90;;;2.20;;
74892;SDS011;63446;56.272;43.922;2022-11-20T07:00:27;15.07;;;3.57;;
74892;SDS011;63446;56.272;43.922;2022-11-20T07:02:53;10.75;;;2.45;;
74892;SDS011;63446;56.272;43.922;2022-11-20T07:05:19;11.50;;;3.60;;
74892;SDS011;63446;56.272;43.922;2022-11-20T07:07:45;8.80;;;2.63;;
74892;SDS011;63446;56.272;43.922;2022-11-20T07:10:10;10.27;;;2.90;;
74892;SDS011;63446;56.272;43.922;2022-11-20T07:12:37;20.43;;;3.40;;
74892;SDS011;63446;56.272;43.922;2022-11-20T07:15:04;11.38;;;3.33;;
74892;SDS011;63446;56.272;43.922;2022-11-20T07:17:31;12.57;;;3.65;;
74892;SDS011;63446;56.272;43.922;2022-11-20T07:19:57;8.73;;;2.73;;
74892;SDS011;63446;56.272;43.922;2022-11-20T07:22:26;9.65;;;3.10;;
74892;SDS011;63446;56.272;43.922;2022-11-20T07:24:52;10.88;;;2.97;;
74892;SDS011;63446;56.272;43.922;2022-11-20T07:27:17;11.70;;;2.77;;
74892;SDS011;63446;56.272;43.922;2022-11-20T07:29:45;12.10;;;3.08;;
74892;SDS011;63446;56.272;43.922;2022-11-20T07:32:11;10.73;;;3.40;;
74892;SDS011;63446;56.272;43.922;2022-11-20T07:34:36;12.20;;;3.03;;
74892;SDS011;63446;56.272;43.922;2022-11-20T07:37:02;11.45;;;2.97;;
74892;SDS011;63446;56.272;43.922;2022-11-20T07:39:28;12.37;;;3.83;;
74892;SDS011;63446;56.272;43.922;2022-11-20T07:41:54;9.38;;;3.47;;
74892;SDS011;63446;56.272;43.922;2022-11-20T07:44:20;10.98;;;3.20;;
74892;SDS011;63446;56.272;43.922;2022-11-20T07:46:46;12.33;;;3.00;;
74892;SDS011;63446;56.272;43.922;2022-11-20T07:49:11;15.05;;;2.50;;
74892;SDS011;63446;56.272;43.922;2022-11-20T07:51:38;10.20;;;2.63;;
74892;SDS011;63446;56.272;43.922;2022-11-20T07:54:04;11.68;;;3.38;;
74892;SDS011;63446;56.272;43.922;2022-11-20T07:56:31;8.52;;;2.95;;
74892;SDS011;63446;56.272;43.922;2022-11-20T07:58:57;12.33;;;3.20;;
74892;SDS011;63446;56.272;43.922;2022-11-20T08:01:22;11.90;;;2.85;;
74892;SDS011;63446;56.272;43.922;2022-11-20T08:03:49;13.55;;;3.78;;
74892;SDS011;63446;56.272;43.922;2022-11-20T08:06:14;9.85;;;2.88;;
74892;SDS011;63446;56.272;43.922;2022-11-20T08:08:40;13.27;;;3.22;;
74892;SDS011;63446;56.272;43.922;2022-11-20T08:11:06;12.55;;;3.83;;
74892;SDS011;63446;56.272;43.922;2022-11-20T08:13:51;11.68;;;3.50;;
74892;SDS011;63446;56.272;43.922;2022-11-20T08:16:35;16.45;;;4.13;;
74892;SDS011;63446;56.272;43.922;2022-11-20T08:19:01;16.67;;;4.18;;
74892;SDS011;63446;56.272;43.922;2022-11-20T08:21:27;9.32;;;3.38;;
74892;SDS011;63446;56.272;43.922;2022-11-20T08:23:58;12.95;;;3.83;;
74892;SDS011;63446;56.272;43.922;2022-11-20T08:26:24;16.13;;;4.03;;
74892;SDS011;63446;56.272;43.922;2022-11-20T08:28:53;14.13;;;4.03;;
74892;SDS011;63446;56.272;43.922;2022-11-20T08:31:23;13.13;;;3.53;;
74892;SDS011;63446;56.272;43.922;2022-11-20T08:33:51;10.90;;;3.45;;
74892;SDS011;63446;56.272;43.922;2022-11-20T08:36:17;12.30;;;3.70;;
74892;SDS011;63446;56.272;43.922;2022-11-20T08:38:48;14.00;;;4.30;;
74892;SDS011;63446;56.272;43.922;2022-11-20T08:41:14;12.97;;;3.70;;
74892;SDS011;63446;56.272;43.922;2022-11-20T08:43:52;15.65;;;4.47;;
74892;SDS011;63446;56.272;43.922;2022-11-20T08:46:19;14.07;;;4.05;;
74892;SDS011;63446;56.272;43.922;2022-11-20T08:48:46;11.25;;;3.70;;
74892;SDS011;63446;56.272;43.922;2022-11-20T08:51:12;14.40;;;3.88;;
74892;SDS011;63446;56.272;43.922;2022-11-20T08:53:40;13.20;;;3.97;;
74892;SDS011;63446;56.272;43.922;2022-11-20T08:56:06;14.75;;;4.22;;
74892;SDS011;63446;56.272;43.922;2022-11-20T08:58:33;14.32;;;5.15;;
74892;SDS011;63446;56.272;43.922;2022-11-20T09:01:00;15.40;;;4.57;;
74892;SDS011;63446;56.272;43.922;2022-11-20T09:03:25;20.40;;;4.65;;
74892;SDS011;63446;56.272;43.922;2022-11-20T09:05:59;11.50;;;4.33;;
74892;SDS011;63446;56.272;43.922;2022-11-20T09:08:26;16.20;;;4.18;;
74892;SDS011;63446;56.272;43.922;2022-11-20T09:10:53;13.65;;;3.60;;
74892;SDS011;63446;56.272;43.922;2022-11-20T09:13:20;13.40;;;4.32;;
74892;SDS011;63446;56.272;43.922;2022-11-20T09:15:51;13.57;;;4.45;;
74892;SDS011;63446;56.272;43.922;2022-11-20T09:18:19;12.97;;;4.27;;
74892;SDS011;63446;56.272;43.922;2022-11-20T09:20:44;13.90;;;4.00;;
74892;SDS011;63446;56.272;43.922;2022-11-20T09:23:11;13.75;;;3.75;;
74892;SDS011;63446;56.272;43.922;2022-11-20T09:25:36;13.77;;;4.43;;
74892;SDS011;63446;56.272;43.922;2022-11-20T09:28:03;15.07;;;4.30;;
74892;SDS011;63446;56.272;43.922;2022-11-20T09:30:29;16.70;;;4.93;;
74892;SDS011;63446;56.272;43.922;2022-11-20T09:32:56;17.83;;;4.63;;
74892;SDS011;63446;56.272;43.922;2022-11-20T09:35:22;13.77;;;4.63;;
74892;SDS011;63446;56.272;43.922;2022-11-20T09:37:48;15.20;;;4.88;;
74892;SDS011;63446;56.272;43.922;2022-11-20T09:40:19;12.07;;;3.70;;
74892;SDS011;63446;56.272;43.922;2022-11-20T09:43:01;15.77;;;3.97;;
74892;SDS011;63446;56.272;43.922;2022-11-20T09:46:49;16.02;;;4.50;;
74892;SDS011;63446;56.272;43.922;2022-11-20T09:54:43;17.85;;;4.25;;
74892;SDS011;63446;56.272;43.922;2022-11-20T09:56:58;13.88;;;4.05;;
74892;SDS011;63446;56.272;43.922;2022-11-20T09:59:33;14.02;;;4.47;;
74892;SDS011;63446;56.272;43.922;2022-11-20T10:02:00;14.65;;;4.50;;
74892;SDS011;63446;56.272;43.922;2022-11-20T10:04:37;19.43;;;4.60;;
74892;SDS011;63446;56.272;43.922;2022-11-20T10:09:54;16.15;;;4.63;;
74892;SDS011;63446;56.272;43.922;2022-11-20T10:24:08;13.30;;;3.83;;
74892;SDS011;63446;56.272;43.922;2022-11-20T10:29:42;16.83;;;4.63;;
74892;SDS011;63446;56.272;43.922;2022-11-20T10:32:11;17.80;;;4.10;;
74892;SDS011;63446;56.272;43.922;2022-11-20T10:34:59;13.35;;;4.68;;
74892;SDS011;63446;56.272;43.922;2022-11-20T10:37:35;14.10;;;3.97;;
74892;SDS011;63446;56.272;43.922;2022-11-20T10:40:52;11.20;;;3.58;;
74892;SDS011;63446;56.272;43.922;2022-11-20T10:43:12;14.50;;;4.72;;
74892;SDS011;63446;56.272;43.922;2022-11-20T10:48:21;14.20;;;4.43;;
74892;SDS011;63446;56.272;43.922;2022-11-20T10:50:52;16.95;;;3.80;;
74892;SDS011;63446;56.272;43.922;2022-11-20T10:56:05;14.45;;;3.78;;
74892;SDS011;63446;56.272;43.922;2022-11-20T11:01:24;13.18;;;3.85;;
74892;SDS011;63446;56.272;43.922;2022-11-20T11:03:52;15.52;;;4.63;;
74892;SDS011;63446;56.272;43.922;2022-11-20T11:06:31;12.10;;;3.83;;
74892;SDS011;63446;56.272;43.922;2022-11-20T11:09:09;16.50;;;5.35;;
74892;SDS011;63446;56.272;43.922;2022-11-20T11:11:40;18.40;;;4.97;;
74892;SDS011;63446;56.272;43.922;2022-11-20T11:14:07;16.73;;;4.55;;
74892;SDS011;63446;56.272;43.922;2022-11-20T11:16:48;16.48;;;4.38;;
74892;SDS011;63446;56.272;43.922;2022-11-20T11:19:16;16.38;;;4.05;;
74892;SDS011;63446;56.272;43.922;2022-11-20T11:21:52;12.60;;;3.55;;
74892;SDS011;63446;56.272;43.922;2022-11-20T11:29:32;15.85;;;4.95;;
74892;SDS011;63446;56.272;43.922;2022-11-20T11:32:10;14.13;;;4.57;;
74892;SDS011;63446;56.272;43.922;2022-11-20T11:34:38;15.80;;;4.60;;
74892;SDS011;63446;56.272;43.922;2022-11-20T11:37:04;16.83;;;4.50;;
74892;SDS011;63446;56.272;43.922;2022-11-20T11:39:41;16.00;;;4.85;;
74892;SDS011;63446;56.272;43.922;2022-11-20T11:42:11;16.58;;;5.13;;
74892;SDS011;63446;56.272;43.922;2022-11-20T11:44:44;11.98;;;4.38;;
74892;SDS011;63446;56.272;43.922;2022-11-20T11:47:31;14.97;;;4.50;;
74892;SDS011;63446;56.272;43.922;2022-11-20T11:55:15;15.48;;;4.32;;
74892;SDS011;63446;56.272;43.922;2022-11-20T11:57:53;13.07;;;4.35;;
74892;SDS011;63446;56.272;43.922;2022-11-20T12:00:20;15.93;;;4.60;;
74892;SDS011;63446;56.272;43.922;2022-11-20T12:16:19;17.58;;;4.90;;
74892;SDS011;63446;56.272;43.922;2022-11-20T12:18:47;16.33;;;4.63;;
74892;SDS011;63446;56.272;43.922;2022-11-20T12:26:53;14.07;;;3.63;;
74892;SDS011;63446;56.272;43.922;2022-11-20T12:29:32;13.13;;;3.83;;
74892;SDS011;63446;56.272;43.922;2022-11-20T12:32:10;15.75;;;4.20;;
74892;SDS011;63446;56.272;43.922;2022-11-20T12:37:52;11.23;;;3.75;;
74892;SDS011;63446;56.272;43.922;2022-11-20T12:52:56;14.43;;;4.38;;
74892;SDS011;63446;56.272;43.922;2022-11-20T12:58:16;9.93;;;3.95;;
74892;SDS011;63446;56.272;43.922;2022-11-20T13:00:57;15.15;;;4.85;;
74892;SDS011;63446;56.272;43.922;2022-11-20T13:03:33;13.10;;;4.60;;
74892;SDS011;63446;56.272;43.922;2022-11-20T13:08:53;35.30;;;12.53;;
74892;SDS011;63446;56.272;43.922;2022-11-20T13:17:12;16.40;;;4.72;;
74892;SDS011;63446;56.272;43.922;2022-11-20T13:19:40;14.50;;;4.47;;
74892;SDS011;63446;56.272;43.922;2022-11-20T13:22:08;21.50;;;6.30;;
74892;SDS011;63446;56.272;43.922;2022-11-20T13:24:35;16.80;;;5.72;;
74892;SDS011;63446;56.272;43.922;2022-11-20T13:29:26;18.30;;;5.50;;
74892;SDS011;63446;56.272;43.922;2022-11-20T13:32:00;19.85;;;6.93;;
74892;SDS011;63446;56.272;43.922;2022-11-20T13:34:31;27.85;;;9.10;;
74892;SDS011;63446;56.272;43.922;2022-11-20T13:36:57;21.05;;;7.72;;
74892;SDS011;63446;56.272;43.922;2022-11-20T13:39:30;20.80;;;7.63;;
74892;SDS011;63446;56.272;43.922;2022-11-20T13:42:43;19.00;;;6.18;;
74892;SDS011;63446;56.272;43.922;2022-11-20T13:45:08;14.90;;;5.28;;
74892;SDS011;63446;56.272;43.922;2022-11-20T13:47:54;13.00;;;4.30;;
74892;SDS011;63446;56.272;43.922;2022-11-20T13:50:26;14.25;;;4.75;;
74892;SDS011;63446;56.272;43.922;2022-11-20T13:53:31;15.83;;;4.97;;
74892;SDS011;63446;56.272;43.922;2022-11-20T13:58:58;15.27;;;5.07;;
74892;SDS011;63446;56.272;43.922;2022-11-20T14:01:31;14.45;;;5.13;;
74892;SDS011;63446;56.272;43.922;2022-11-20T14:03:58;21.00;;;5.97;;
74892;SDS011;63446;56.272;43.922;2022-11-20T14:06:31;16.33;;;5.30;;
74892;SDS011;63446;56.272;43.922;2022-11-20T14:09:01;17.00;;;5.82;;
74892;SDS011;63446;56.272;43.922;2022-11-20T14:11:28;15.80;;;6.05;;
74892;SDS011;63446;56.272;43.922;2022-11-20T14:14:02;19.58;;;6.20;;
74892;SDS011;63446;56.272;43.922;2022-11-20T14:16:34;15.27;;;5.32;;
74892;SDS011;63446;56.272;43.922;2022-11-20T14:21:45;16.08;;;5.30;;
74892;SDS011;63446;56.272;43.922;2022-11-20T14:24:20;17.98;;;5.97;;
74892;SDS011;63446;56.272;43.922;2022-11-20T14:26:47;20.00;;;5.38;;
74892;SDS011;63446;56.272;43.922;2022-11-20T14:29:19;15.23;;;5.35;;
74892;SDS011;63446;56.272;43.922;2022-11-20T14:31:53;13.33;;;5.27;;
74892;SDS011;63446;56.272;43.922;2022-11-20T14:34:31;14.98;;;5.13;;
74892;SDS011;63446;56.272;43.922;2022-11-20T14:37:02;15.63;;;5.40;;
74892;SDS011;63446;56.272;43.922;2022-11-20T14:39:32;25.63;;;7.57;;
74892;SDS011;63446;56.272;43.922;2022-11-20T14:42:00;27.17;;;7.55;;
74892;SDS011;63446;56.272;43.922;2022-11-20T14:44:27;16.27;;;5.67;;
74892;SDS011;63446;56.272;43.922;2022-11-20T14:46:55;21.88;;;6.18;;
74892;SDS011;63446;56.272;43.922;2022-11-20T14:49:24;18.15;;;5.75;;
74892;SDS011;63446;56.272;43.922;2022-11-20T14:52:01;15.32;;;4.70;;
74892;SDS011;63446;56.272;43.922;2022-11-20T14:54:43;13.30;;;4.47;;
74892;SDS011;63446;56.272;43.922;2022-11-20T15:02:47;16.88;;;5.45;;
74892;SDS011;63446;56.272;43.922;2022-11-20T15:05:16;19.10;;;5.97;;
74892;SDS011;63446;56.272;43.922;2022-11-20T15:07:44;23.27;;;7.53;;
74892;SDS011;63446;56.272;43.922;2022-11-20T15:10:13;15.57;;;5.97;;
74892;SDS011;63446;56.272;43.922;2022-11-20T15:12:48;19.02;;;5.45;;
74892;SDS011;63446;56.272;43.922;2022-11-20T15:15:38;13.63;;;4.38;;
74892;SDS011;63446;56.272;43.922;2022-11-20T15:18:16;16.35;;;5.88;;
74892;SDS011;63446;56.272;43.922;2022-11-20T15:20:46;17.85;;;5.53;;
74892;SDS011;63446;56.272;43.922;2022-11-20T15:23:14;17.40;;;5.23;;
74892;SDS011;63446;56.272;43.922;2022-11-20T15:25:44;18.70;;;5.32;;
74892;SDS011;63446;56.272;43.922;2022-11-20T15:31:02;16.00;;;5.07;;
74892;SDS011;63446;56.272;43.922;2022-11-20T15:33:30;19.83;;;5.85;;
74892;SDS011;63446;56.272;43.922;2022-11-20T15:35:56;14.30;;;4.67;;
74892;SDS011;63446;56.272;43.922;2022-11-20T15:38:22;15.23;;;5.07;;
74892;SDS011;63446;56.272;43.922;2022-11-20T15:40:48;16.98;;;4.70;;
74892;SDS011;63446;56.272;43.922;2022-11-20T15:43:14;12.37;;;4.13;;
74892;SDS011;63446;56.272;43.922;2022-11-20T15:45:47;15.38;;;4.45;;
74892;SDS011;63446;56.272;43.922;2022-11-20T15:50:58;16.80;;;5.50;;
74892;SDS011;63446;56.272;43.922;2022-11-20T15:53:29;16.70;;;4.55;;
74892;SDS011;63446;56.272;43.922;2022-11-20T15:55:54;14.30;;;4.43;;
74892;SDS011;63446;56.272;43.922;2022-11-20T15:58:21;15.67;;;4.40;;
74892;SDS011;63446;56.272;43.922;2022-11-20T16:00:48;11.93;;;4.78;;
74892;SDS011;63446;56.272;43.922;2022-11-20T16:03:15;16.40;;;5.10;;
74892;SDS011;63446;56.272;43.922;2022-11-20T16:05:42;17.13;;;4.72;;
74892;SDS011;63446;56.272;43.922;2022-11-20T16:08:09;14.80;;;4.77;;
74892;SDS011;63446;56.272;43.922;2022-11-20T16:10:34;14.63;;;4.50;;
74892;SDS011;63446;56.272;43.922;2022-11-20T16:13:03;12.70;;;3.83;;
74892;SDS011;63446;56.272;43.922;2022-11-20T16:15:56;12.30;;;3.78;;
74892;SDS011;63446;56.272;43.922;2022-11-20T16:18:24;12.13;;;3.67;;
74892;SDS011;63446;56.272;43.922;2022-11-20T16:20:52;9.15;;;3.30;;
74892;SDS011;63446;56.272;43.922;2022-11-20T16:23:19;15.05;;;3.35;;
74892;SDS011;63446;56.272;43.922;2022-11-20T16:25:46;13.27;;;3.80;;
74892;SDS011;63446;56.272;43.922;2022-11-20T16:28:12;17.52;;;4.65;;
74892;SDS011;63446;56.272;43.922;2022-11-20T16:30:39;14.63;;;4.37;;
74892;SDS011;63446;56.272;43.922;2022-11-20T16:33:08;11.70;;;4.22;;
74892;SDS011;63446;56.272;43.922;2022-11-20T16:35:37;16.27;;;4.50;;